Time;durP1;ratioP1;P1;durP2;ratioP2;P2;SDS_P1;SDS_P2;PMS_P1;PMS_P2;Temp;Humidity;BMP_temperature;BMP_pressure;BME280_temperature;BME280_humidity;BME280_pressure;Samples;Min_cycle;Max_cycle;Signal;HPM_P1;HPM_P2
2023/09/08 00:02:29;;;;;;;11.20;7.43;;;;;;;22.08;76.22;99827.94;5063449;28;20035;-94
2023/09/08 00:04:54;;;;;;;9.60;7.20;;;;;;;21.81;79.36;99827.47;5055410;28;20028;-94
2023/09/08 00:07:20;;;;;;;13.80;7.65;;;;;;;21.80;80.30;99825.84;5055086;28;20027;-95
2023/09/08 00:09:46;;;;;;;13.23;7.65;;;;;;;21.60;83.05;99827.00;5071983;28;20489;-94
2023/09/08 00:12:12;;;;;;;11.55;8.57;;;;;;;21.21;85.03;99790.69;5062411;28;20120;-95
2023/09/08 00:14:38;;;;;;;17.48;9.25;;;;;;;21.25;87.81;99819.97;5055227;28;20497;-94
2023/09/08 00:17:04;;;;;;;15.60;9.32;;;;;;;21.50;86.99;99824.94;5055073;28;20032;-95
2023/09/08 00:19:29;;;;;;;18.73;9.90;;;;;;;21.35;88.31;99823.25;5068334;28;20025;-95
2023/09/08 00:21:56;;;;;;;12.88;8.70;;;;;;;20.88;90.96;99819.00;5062720;28;20028;-95
2023/09/08 00:24:22;;;;;;;13.75;9.18;;;;;;;20.96;91.85;99827.53;5054718;28;20093;-95
2023/09/08 00:26:47;;;;;;;14.68;9.30;;;;;;;20.73;93.77;99829.41;5055072;28;20025;-94
2023/09/08 00:29:13;;;;;;;18.85;10.48;;;;;;;20.55;95.87;99834.16;5054650;28;20179;-94
2023/09/08 00:31:38;;;;;;;15.35;11.18;;;;;;;20.11;99.26;99804.59;5054880;28;20099;-94
2023/09/08 00:34:04;;;;;;;14.73;10.35;;;;;;;19.92;100.00;99810.09;5054736;28;20027;-94
2023/09/08 00:36:29;;;;;;;13.68;10.43;;;;;;;19.92;100.00;99826.31;5070231;28;20028;-94
2023/09/08 00:38:55;;;;;;;16.08;11.20;;;;;;;19.57;100.00;99816.22;5054737;28;20165;-95
2023/09/08 00:41:20;;;;;;;13.50;10.57;;;;;;;19.62;100.00;99836.53;5054498;28;20055;-94
2023/09/08 00:43:46;;;;;;;16.02;11.18;;;;;;;19.47;100.00;99829.06;5055207;28;20021;-94
2023/09/08 00:46:12;;;;;;;20.35;12.25;;;;;;;19.50;100.00;99816.94;5054561;28;20028;-95
2023/09/08 00:48:39;;;;;;;23.77;10.32;;;;;;;19.68;100.00;99828.50;5054469;28;20043;-95
2023/09/08 00:51:07;;;;;;;16.23;11.05;;;;;;;19.47;100.00;99812.88;5064694;28;20078;-94
2023/09/08 00:53:33;;;;;;;17.80;10.40;;;;;;;19.25;100.00;99808.13;5062014;28;20024;-95
2023/09/08 00:55:59;;;;;;;18.48;11.77;;;;;;;19.38;100.00;99832.19;5071400;28;20024;-94
2023/09/08 00:58:25;;;;;;;15.65;10.20;;;;;;;19.29;100.00;99824.00;5059339;28;20048;-95
2023/09/08 01:00:51;;;;;;;15.57;10.95;;;;;;;19.20;100.00;99821.47;5054071;28;20472;-95
2023/09/08 01:03:16;;;;;;;13.65;9.88;;;;;;;19.33;100.00;99819.19;5054764;28;20025;-94
2023/09/08 01:05:42;;;;;;;20.17;11.07;;;;;;;19.40;100.00;99809.94;5054629;28;20024;-95
2023/09/08 01:08:09;;;;;;;17.85;10.88;;;;;;;19.28;100.00;99813.03;5059399;28;20192;-95
2023/09/08 01:10:36;;;;;;;19.45;10.60;;;;;;;19.19;100.00;99794.31;5055657;28;20073;-95
2023/09/08 01:13:03;;;;;;;17.60;11.65;;;;;;;19.10;100.00;99792.97;5054429;28;20028;-95
2023/09/08 01:15:28;;;;;;;17.42;10.10;;;;;;;19.25;100.00;99811.81;5054332;28;20106;-95
2023/09/08 01:17:54;;;;;;;15.68;11.07;;;;;;;18.99;100.00;99790.78;5054515;28;20117;-95
2023/09/08 01:20:24;;;;;;;19.55;11.48;;;;;;;18.98;100.00;99782.69;5054335;28;20109;-95
2023/09/08 01:23:20;;;;;;;13.57;10.65;;;;;;;19.00;100.00;99777.47;5054178;28;20066;-96
2023/09/08 01:26:01;;;;;;;16.30;10.30;;;;;;;19.03;100.00;99800.19;5053912;28;20039;-95
2023/09/08 01:28:27;;;;;;;18.67;11.15;;;;;;;19.19;100.00;99805.66;5060034;28;20032;-95
2023/09/08 01:30:55;;;;;;;15.80;11.48;;;;;;;19.22;100.00;99802.03;5053922;28;20017;-94
2023/09/08 01:33:22;;;;;;;16.05;11.77;;;;;;;19.30;100.00;99799.28;5054317;28;20489;-95
2023/09/08 01:35:48;;;;;;;19.65;11.35;;;;;;;19.05;100.00;99794.13;5054517;28;20035;-95
2023/09/08 01:38:14;;;;;;;18.23;11.82;;;;;;;19.17;100.00;99793.88;5070656;28;20032;-94
2023/09/08 01:40:39;;;;;;;23.45;13.20;;;;;;;19.24;100.00;99803.69;5054200;28;20017;-95
2023/09/08 01:43:05;;;;;;;16.30;12.52;;;;;;;19.02;100.00;99761.72;5053920;28;20021;-95
2023/09/08 01:45:30;;;;;;;16.80;12.30;;;;;;;19.35;100.00;99784.78;5083960;28;20040;-95
2023/09/08 01:47:56;;;;;;;19.27;13.52;;;;;;;19.38;100.00;99792.50;5060472;28;20024;-95
2023/09/08 01:50:24;;;;;;;21.15;12.32;;;;;;;19.35;100.00;99781.94;5070768;28;20016;-94
2023/09/08 01:52:49;;;;;;;19.02;11.88;;;;;;;19.49;100.00;99796.28;5054728;28;20052;-95
2023/09/08 01:55:16;;;;;;;19.50;12.88;;;;;;;19.61;100.00;99797.19;5054023;28;20043;-96
2023/09/08 01:57:42;;;;;;;19.40;12.43;;;;;;;19.34;100.00;99792.44;5053098;28;20029;-94
2023/09/08 02:00:09;;;;;;;18.90;13.20;;;;;;;19.42;100.00;99793.34;5054716;28;20477;-95
2023/09/08 02:02:34;;;;;;;22.27;13.98;;;;;;;19.45;100.00;99791.75;5054130;28;20035;-95
2023/09/08 02:05:00;;;;;;;23.58;13.52;;;;;;;19.50;100.00;99780.88;5054144;28;20020;-96
2023/09/08 02:07:26;;;;;;;25.52;14.02;;;;;;;19.55;100.00;99798.75;5055325;28;20111;-95
2023/09/08 02:09:51;;;;;;;19.73;13.82;;;;;;;19.25;100.00;99769.28;5054909;28;20107;-94
2023/09/08 02:12:16;;;;;;;19.08;13.77;;;;;;;19.54;100.00;99788.59;5057852;28;20413;-95
2023/09/08 02:14:42;;;;;;;22.70;13.70;;;;;;;19.66;100.00;99796.03;5057587;28;20067;-95
2023/09/08 02:17:07;;;;;;;23.92;13.02;;;;;;;19.62;100.00;99788.31;5062071;28;20119;-96
2023/09/08 02:19:33;;;;;;;23.45;14.57;;;;;;;19.77;100.00;99796.97;5067900;28;20103;-96
2023/09/08 02:21:58;;;;;;;18.33;13.65;;;;;;;19.75;100.00;99793.72;5057193;28;20032;-95
2023/09/08 02:24:24;;;;;;;24.50;14.13;;;;;;;19.70;100.00;99792.03;5057546;28;20024;-95
2023/09/08 02:26:49;;;;;;;20.05;13.60;;;;;;;19.69;100.00;99770.53;5062414;28;20028;-94
2023/09/08 02:29:15;;;;;;;22.52;13.57;;;;;;;19.92;100.00;99786.56;5073853;28;20020;-95
2023/09/08 02:31:41;;;;;;;16.33;12.32;;;;;;;19.99;99.90;99794.38;5056957;28;20032;-95
2023/09/08 02:34:06;;;;;;;22.23;14.20;;;;;;;20.14;98.66;99795.28;5056379;28;20481;-95
2023/09/08 02:36:31;;;;;;;21.88;13.05;;;;;;;20.21;97.34;99786.84;5057553;28;20401;-95
2023/09/08 02:38:57;;;;;;;21.88;13.25;;;;;;;20.26;96.48;99788.50;5057113;28;20059;-94
2023/09/08 02:41:23;;;;;;;18.80;12.82;;;;;;;20.15;95.76;99760.00;5057029;28;20016;-95
2023/09/08 02:43:49;;;;;;;19.77;13.02;;;;;;;20.40;95.45;99785.75;5056828;28;20517;-96
2023/09/08 02:46:14;;;;;;;19.73;13.25;;;;;;;20.11;95.42;99740.13;5056954;28;20063;-95
2023/09/08 02:48:40;;;;;;;19.35;14.00;;;;;;;20.04;96.03;99760.75;5076855;28;20036;-95
2023/09/08 02:51:06;;;;;;;20.38;12.07;;;;;;;19.87;96.26;99735.81;5070306;28;20035;-94
2023/09/08 02:53:32;;;;;;;19.23;13.43;;;;;;;20.15;96.01;99771.34;5056595;28;20047;-95
2023/09/08 02:55:59;;;;;;;15.73;11.88;;;;;;;20.21;95.78;99772.63;5057135;28;20024;-95
2023/09/08 02:58:25;;;;;;;22.85;15.38;;;;;;;20.13;95.63;99760.41;5056537;28;20449;-96
2023/09/08 03:00:54;;;;;;;16.13;12.93;;;;;;;20.10;95.03;99763.22;5056580;28;20024;-95
2023/09/08 03:03:20;;;;;;;24.08;13.38;;;;;;;20.18;94.93;99779.91;5056399;28;20029;-95
2023/09/08 03:05:45;;;;;;;19.23;11.82;;;;;;;19.90;94.34;99735.03;5056357;28;20107;-96
2023/09/08 03:08:11;;;;;;;20.55;13.70;;;;;;;20.09;93.80;99761.59;5066666;28;20035;-94
2023/09/08 03:10:37;;;;;;;17.27;12.88;;;;;;;20.21;93.50;99784.00;5072768;28;20508;-95
2023/09/08 03:13:05;;;;;;;16.75;13.07;;;;;;;19.93;93.35;99737.13;5072971;28;20036;-96
2023/09/08 03:15:31;;;;;;;21.17;14.13;;;;;;;19.95;92.83;99746.06;5070364;28;20044;-95
2023/09/08 03:18:01;;;;;;;19.42;12.48;;;;;;;20.10;92.30;99769.72;5063368;28;20028;-95
2023/09/08 03:20:28;;;;;;;19.85;12.05;;;;;;;19.90;92.34;99750.06;5056013;28;20032;-94
2023/09/08 03:22:53;;;;;;;22.08;12.80;;;;;;;19.87;92.39;99739.50;5055950;28;20029;-94
2023/09/08 03:25:19;;;;;;;20.17;13.88;;;;;;;20.11;92.99;99776.19;5064299;28;20463;-96
2023/09/08 03:27:45;;;;;;;24.35;13.63;;;;;;;20.09;93.54;99779.44;5074765;28;20115;-96
2023/09/08 03:30:11;;;;;;;21.70;13.70;;;;;;;19.78;94.09;99750.34;5076223;28;20020;-95
2023/09/08 03:32:37;;;;;;;17.45;12.63;;;;;;;19.90;94.28;99777.59;5076096;28;20024;-96
2023/09/08 03:35:07;;;;;;;25.92;13.18;;;;;;;19.81;93.68;99757.28;5058454;28;20020;-95
2023/09/08 03:37:33;;;;;;;22.13;13.00;;;;;;;19.87;93.81;99773.56;5072061;28;20030;-96
2023/09/08 03:39:59;;;;;;;38.83;14.20;;;;;;;19.76;93.30;99758.44;5055560;28;20025;-95
2023/09/08 03:42:24;;;;;;;24.77;13.60;;;;;;;19.91;93.44;99777.22;5068126;28;20089;-94
2023/09/08 03:44:49;;;;;;;22.05;13.10;;;;;;;19.90;93.50;99777.59;5072039;28;20131;-95
2023/09/08 03:47:15;;;;;;;21.55;14.00;;;;;;;19.83;93.95;99781.19;5068549;28;20507;-96
2023/09/08 03:49:40;;;;;;;22.17;12.80;;;;;;;19.53;95.08;99758.59;5067267;28;20460;-94
2023/09/08 03:52:06;;;;;;;19.10;13.20;;;;;;;19.68;95.56;99782.28;5035716;28;20021;-95
2023/09/08 03:54:32;;;;;;;24.27;13.95;;;;;;;19.47;95.29;99749.63;5035849;28;20078;-95
2023/09/08 03:56:58;;;;;;;23.30;13.80;;;;;;;19.73;95.35;99784.75;5056095;28;20028;-94
2023/09/08 03:59:23;;;;;;;28.92;13.82;;;;;;;19.56;95.04;99750.13;5055672;28;20029;-95
2023/09/08 04:01:49;;;;;;;28.35;13.60;;;;;;;19.71;94.64;99767.28;5056942;28;20040;-95
2023/09/08 04:04:14;;;;;;;25.15;14.20;;;;;;;19.73;94.66;99779.91;5068215;28;20043;-95
2023/09/08 04:06:41;;;;;;;27.65;14.75;;;;;;;19.67;94.52;99767.28;5069998;28;20074;-96
2023/09/08 04:09:07;;;;;;;22.67;13.90;;;;;;;19.71;94.39;99767.28;5061823;28;20025;-94
2023/09/08 04:11:32;;;;;;;30.48;16.00;;;;;;;19.69;94.70;99769.72;5072344;28;20059;-95
2023/09/08 04:13:58;;;;;;;25.50;13.93;;;;;;;19.73;94.91;99779.91;5072847;28;20033;-94
2023/09/08 04:16:24;;;;;;;30.63;13.65;;;;;;;19.73;95.33;99790.41;5055278;28;20031;-95
2023/09/08 04:18:49;;;;;;;31.42;14.98;;;;;;;19.67;95.09;99775.81;5064347;28;20021;-95
2023/09/08 04:21:15;;;;;;;25.52;13.63;;;;;;;19.84;95.42;99811.22;5075574;28;20032;-95
2023/09/08 04:23:40;;;;;;;23.40;14.07;;;;;;;19.88;95.24;99802.72;5072173;28;20031;-95
2023/09/08 04:26:06;;;;;;;29.55;15.70;;;;;;;19.81;95.81;99797.00;5055546;28;20032;-95
2023/09/08 04:28:31;;;;;;;36.88;15.65;;;;;;;19.63;95.63;99789.13;5080904;28;20048;-95
2023/09/08 04:30:57;;;;;;;34.03;15.73;;;;;;;19.58;96.83;99800.81;5054830;28;20081;-95
2023/09/08 04:33:24;;;;;;;26.73;14.50;;;;;;;19.55;96.37;99776.06;5053190;28;20020;-95
2023/09/08 04:35:49;;;;;;;22.50;15.65;;;;;;;19.63;97.00;99791.94;5054614;28;20021;-95
2023/09/08 04:38:15;;;;;;;36.60;17.15;;;;;;;19.85;96.73;99824.22;5055219;28;20059;-95
2023/09/08 04:40:41;;;;;;;30.75;16.63;;;;;;;19.69;97.32;99812.28;5055054;28;20012;-95
2023/09/08 04:43:07;;;;;;;28.67;15.50;;;;;;;19.67;96.65;99818.34;5071087;28;20505;-94
2023/09/08 04:45:32;;;;;;;29.90;16.65;;;;;;;19.30;97.61;99802.13;5054775;28;20111;-94
2023/09/08 04:47:58;;;;;;;28.92;15.10;;;;;;;19.14;97.92;99783.31;5054480;28;20024;-96
2023/09/08 04:50:29;;;;;;;23.77;14.07;;;;;;;19.27;98.38;99823.56;5054581;28;20024;-95
2023/09/08 04:52:55;;;;;;;26.73;14.38;;;;;;;19.05;97.34;99791.28;5054365;28;20039;-95
2023/09/08 04:55:20;;;;;;;29.83;13.88;;;;;;;19.25;97.25;99822.31;5048377;28;20029;-94
2023/09/08 04:57:49;;;;;;;33.97;14.88;;;;;;;18.89;98.96;99812.09;5055209;28;20024;-95
2023/09/08 05:00:15;;;;;;;21.38;13.75;;;;;;;18.93;98.00;99806.50;5054192;28;20031;-95
2023/09/08 05:02:40;;;;;;;22.75;13.10;;;;;;;18.77;98.91;99803.84;5051909;28;20032;-95
2023/09/08 05:05:06;;;;;;;28.27;14.85;;;;;;;18.79;99.77;99822.09;5051694;28;20040;-95
2023/09/08 05:07:35;;;;;;;30.63;15.88;;;;;;;18.41;100.00;99789.16;5051427;28;20033;-95
2023/09/08 05:10:00;;;;;;;19.42;12.32;;;;;;;18.62;99.08;99819.81;5054120;28;20052;-96
2023/09/08 05:12:26;;;;;;;22.25;15.75;;;;;;;18.56;100.00;99833.47;5054619;28;20083;-94
2023/09/08 05:14:56;;;;;;;22.55;13.85;;;;;;;18.28;100.00;99812.00;5058067;28;20067;-96
2023/09/08 05:17:21;;;;;;;;;;;;;;;18.26;100.00;99848.38;5059754;28;20021;-95
2023/09/08 05:19:50;;;;;;;25.70;13.23;;;;;;;18.00;100.00;99813.16;5051223;28;20011;-94
2023/09/08 05:22:15;;;;;;;25.58;14.38;;;;;;;18.27;100.00;99847.19;5054373;28;20436;-96
2023/09/08 05:24:41;;;;;;;35.28;15.55;;;;;;;18.17;100.00;99816.69;5054077;28;20262;-95
2023/09/08 05:27:06;;;;;;;35.40;14.95;;;;;;;18.38;100.00;99838.84;5054740;28;20501;-95
2023/09/08 05:29:32;;;;;;;33.65;13.18;;;;;;;18.37;100.00;99818.25;5055118;28;20029;-95
2023/09/08 05:31:57;;;;;;;29.63;13.38;;;;;;;18.51;100.00;99845.94;5055447;28;20037;-96
2023/09/08 05:34:23;;;;;;;27.52;13.32;;;;;;;18.60;100.00;99842.03;5060277;23;20131;-67
2023/09/08 05:36:48;;;;;;;29.30;13.98;;;;;;;18.73;100.00;99843.44;5074157;28;20434;-76
2023/09/08 05:39:18;;;;;;;19.65;12.38;;;;;;;18.59;100.00;99852.56;5080160;28;20021;-72
2023/09/08 05:41:44;;;;;;;;;;;;;;;18.51;100.00;99854.44;5086154;28;20032;-72
2023/09/08 05:44:09;;;;;;;22.92;13.73;;;;;;;18.49;100.00;99850.38;5083694;28;19972;-72
2023/09/08 05:46:35;;;;;;;18.77;13.68;;;;;;;18.53;100.00;99854.06;5113172;28;20019;-72
2023/09/08 05:49:01;;;;;;;21.15;12.63;;;;;;;18.56;100.00;99858.16;5104042;28;20524;-72
2023/09/08 05:51:26;;;;;;;22.35;13.77;;;;;;;18.55;100.00;99865.84;5094579;28;20107;-72
2023/09/08 05:53:52;;;;;;;24.25;13.02;;;;;;;18.45;100.00;99857.97;5080914;28;20016;-72
2023/09/08 05:56:19;;;;;;;33.03;23.67;;;;;;;18.51;100.00;99859.31;5094307;28;20020;-72
2023/09/08 05:58:45;;;;;;;103.82;88.53;;;;;;;18.66;100.00;99852.66;5076003;28;20500;-72
2023/09/08 06:01:10;;;;;;;79.97;65.95;;;;;;;18.79;100.00;99849.59;5101437;28;20125;-72
2023/09/08 06:03:35;;;;;;;41.83;32.70;;;;;;;19.06;100.00;99850.44;5113029;28;20038;-73
2023/09/08 06:06:01;;;;;;;25.77;12.10;;;;;;;19.08;98.26;99850.84;5108644;28;20035;-73
2023/09/08 06:08:26;;;;;;;13.98;10.77;;;;;;;19.22;97.12;99849.41;5101550;28;20089;-73
2023/09/08 06:10:52;;;;;;;21.17;9.27;;;;;;;19.44;93.29;99864.69;5097675;28;20051;-73
2023/09/08 06:13:17;;;;;;;12.00;8.85;;;;;;;19.52;92.08;99859.09;5114555;27;20367;-73
2023/09/08 06:15:43;;;;;;;17.25;10.38;;;;;;;19.53;93.87;99863.56;5090030;28;20423;-73
2023/09/08 06:18:08;;;;;;;15.73;10.63;;;;;;;19.66;93.07;99864.13;5094181;28;20088;-73
2023/09/08 06:20:34;;;;;;;26.38;11.70;;;;;;;19.83;92.25;99868.38;5125172;27;20034;-73
2023/09/08 06:22:59;;;;;;;15.75;10.27;;;;;;;20.02;92.05;99867.38;5110772;27;20423;-73
2023/09/08 06:25:25;;;;;;;11.80;9.63;;;;;;;20.17;90.09;99865.50;5097738;27;20023;-73
2023/09/08 06:27:50;;;;;;;13.68;9.52;;;;;;;20.41;88.59;99880.31;5118404;27;20036;-73
2023/09/08 06:30:17;;;;;;;18.40;9.82;;;;;;;20.53;87.24;99877.19;5097607;27;20031;-70
2023/09/08 06:32:43;;;;;;;18.77;9.63;;;;;;;20.72;85.73;99887.47;5105398;27;20055;-70
2023/09/08 06:35:08;;;;;;;14.57;9.13;;;;;;;20.86;85.00;99872.56;5098331;27;20066;-70
2023/09/08 06:37:38;;;;;;;22.75;9.52;;;;;;;21.06;84.52;99885.66;5120033;27;20042;-70
2023/09/08 06:40:05;;;;;;;10.05;8.80;;;;;;;21.25;83.68;99884.59;5079332;27;20420;-70
2023/09/08 06:42:31;;;;;;;11.82;8.38;;;;;;;21.46;81.62;99881.81;5120789;27;20035;-70
2023/09/08 06:44:56;;;;;;;12.02;9.23;;;;;;;21.71;80.50;99881.13;5130729;27;20034;-70
2023/09/08 06:47:22;;;;;;;11.48;8.35;;;;;;;21.50;81.18;99886.72;5127277;27;20037;-70
2023/09/08 06:49:47;;;;;;;13.45;8.38;;;;;;;21.35;81.64;99889.50;5132213;27;20490;-70
2023/09/08 06:52:13;;;;;;;12.38;9.57;;;;;;;21.27;82.19;99897.16;5111725;27;20055;-70
2023/09/08 06:54:38;;;;;;;20.98;10.30;;;;;;;21.29;82.59;99897.59;5131861;27;20030;-70
2023/09/08 06:57:04;;;;;;;17.95;9.38;;;;;;;21.27;82.49;99893.53;5122975;27;20031;-70
2023/09/08 06:59:29;;;;;;;23.70;9.85;;;;;;;21.50;81.82;99898.91;5111874;27;20487;-70
2023/09/08 07:01:55;;;;;;;18.48;8.52;;;;;;;21.63;81.89;99895.72;5108777;27;20027;-69
2023/09/08 07:04:20;;;;;;;18.00;10.40;;;;;;;21.73;81.70;99907.19;5106762;28;20031;-69
2023/09/08 07:06:46;;;;;;;11.55;9.60;;;;;;;21.71;79.61;99898.19;5113412;28;20027;-71
2023/09/08 07:09:12;;;;;;;40.08;10.48;;;;;;;21.90;80.25;99903.94;5095025;28;20403;-68
2023/09/08 07:11:37;;;;;;;19.40;9.57;;;;;;;21.95;79.71;99910.06;5100202;28;20110;-66
2023/09/08 07:14:03;;;;;;;18.65;9.25;;;;;;;22.06;80.54;99909.28;5120032;27;20476;-68
2023/09/08 07:16:31;;;;;;;14.48;9.07;;;;;;;21.98;79.02;99903.59;5112347;27;20030;-67
2023/09/08 07:18:58;;;;;;;16.02;8.98;;;;;;;22.13;78.19;99910.13;5112392;27;20031;-66
2023/09/08 07:27:14;;;;;;;12.95;8.70;;;;;;;22.26;78.06;99916.25;4993029;28;20164;-67
2023/09/08 07:29:40;;;;;;;15.65;8.00;;;;;;;22.46;76.24;99910.19;5001278;28;20084;-66
2023/09/08 07:32:07;;;;;;;16.35;9.25;;;;;;;22.26;75.79;99907.69;5003827;28;20026;-65
2023/09/08 07:34:32;;;;;;;14.88;9.00;;;;;;;22.29;78.40;99906.88;5012516;28;20084;-65
2023/09/08 07:36:57;;;;;;;21.67;9.45;;;;;;;22.08;77.15;99906.84;4992942;28;20030;-66
2023/09/08 07:39:23;;;;;;;14.18;7.53;;;;;;;22.23;76.73;99899.16;4993747;28;20458;-65
2023/09/08 07:41:48;;;;;;;21.80;8.70;;;;;;;22.21;77.14;99908.13;4994194;28;20061;-65
2023/09/08 07:44:14;;;;;;;16.35;8.00;;;;;;;22.28;75.52;99901.63;4991790;28;20023;-65
2023/09/08 07:46:40;;;;;;;16.13;7.80;;;;;;;22.15;75.20;99893.47;5001545;28;20022;-65
2023/09/08 07:49:05;;;;;;;18.15;8.30;;;;;;;22.62;75.76;99898.38;4996493;28;20022;-67
2023/09/08 07:51:31;;;;;;;11.82;7.35;;;;;;;23.08;73.63;99902.41;4994286;28;20026;-66
2023/09/08 07:53:59;;;;;;;22.48;9.13;;;;;;;23.18;70.15;99899.94;4991186;28;20042;-68
2023/09/08 07:56:24;;;;;;;20.40;7.82;;;;;;;23.27;70.50;99904.03;5004537;28;20351;-65
2023/09/08 07:58:50;;;;;;;17.65;8.05;;;;;;;23.52;70.40;99897.41;4997355;28;20025;-66
2023/09/08 08:01:15;;;;;;;14.23;7.93;;;;;;;23.32;70.49;99894.22;4995456;28;20022;-67
2023/09/08 08:03:41;;;;;;;10.57;7.07;;;;;;;23.46;69.65;99892.53;5001987;28;20026;-67
2023/09/08 08:06:07;;;;;;;14.73;8.02;;;;;;;23.23;68.97;99896.66;4992556;28;20022;-66
2023/09/08 08:08:38;;;;;;;9.45;6.85;;;;;;;23.16;68.54;99899.53;4991345;28;20507;-66
2023/09/08 08:11:10;;;;;;;17.42;7.43;;;;;;;23.10;67.52;99888.53;5007955;28;20029;-69
2023/09/08 08:13:36;;;;;;;10.57;6.95;;;;;;;23.11;69.64;99889.38;4985577;28;20030;-68
2023/09/08 08:16:01;;;;;;;17.60;7.65;;;;;;;23.37;67.89;99884.44;4990790;28;20101;-67
2023/09/08 08:18:27;;;;;;;15.45;7.80;;;;;;;23.46;68.45;99886.84;4983714;28;20553;-67
2023/09/08 08:20:52;;;;;;;13.13;7.15;;;;;;;23.55;65.92;99884.38;5000794;28;20018;-68
2023/09/08 08:23:17;;;;;;;9.45;6.60;;;;;;;23.73;65.31;99886.31;4994178;28;20033;-68
2023/09/08 08:25:43;;;;;;;10.95;6.88;;;;;;;23.88;63.47;99876.41;4997927;28;20039;-67
2023/09/08 08:28:08;;;;;;;15.82;7.32;;;;;;;24.03;62.72;99885.75;4991360;28;20042;-68
2023/09/08 08:30:35;;;;;;;15.52;5.97;;;;;;;24.33;61.66;99875.75;4990622;28;20458;-67
2023/09/08 08:33:01;;;;;;;11.00;5.68;;;;;;;24.60;59.06;99877.16;4991645;28;20097;-68
2023/09/08 08:35:26;;;;;;;11.30;5.03;;;;;;;24.81;57.37;99879.06;4991227;28;20089;-67
2023/09/08 08:37:52;;;;;;;10.93;5.95;;;;;;;25.35;56.49;99874.78;4992116;28;20105;-66
2023/09/08 08:40:17;;;;;;;9.88;5.57;;;;;;;25.63;53.97;99872.81;4969524;28;20522;-66
2023/09/08 08:42:44;;;;;;;10.75;5.85;;;;;;;25.93;53.33;99872.00;4991425;28;20597;-67
2023/09/08 08:45:11;;;;;;;6.70;4.72;;;;;;;25.94;52.01;99875.69;4991926;28;20034;-67
2023/09/08 08:47:37;;;;;;;13.93;5.60;;;;;;;26.01;52.70;99874.75;4991959;28;20033;-66
2023/09/08 08:50:04;;;;;;;7.22;5.93;;;;;;;26.01;51.15;99875.59;4991484;28;20034;-66
2023/09/08 08:52:30;;;;;;;11.65;5.13;;;;;;;25.89;51.46;99873.31;4985009;28;20035;-67
2023/09/08 08:54:55;;;;;;;9.57;5.35;;;;;;;25.42;52.72;99871.03;4989360;28;20465;-69
2023/09/08 08:57:22;;;;;;;10.13;5.75;;;;;;;25.58;52.85;99871.28;4986127;28;20466;-69
2023/09/08 08:59:51;;;;;;;7.97;5.70;;;;;;;25.50;51.44;99875.47;4973880;28;20089;-73
2023/09/08 09:02:18;;;;;;;11.93;5.82;;;;;;;25.82;53.56;99874.19;4980790;28;20121;-73
2023/09/08 09:04:45;;;;;;;13.25;5.93;;;;;;;25.90;53.67;99866.34;4982608;28;20034;-73
2023/09/08 09:07:11;;;;;;;12.15;5.30;;;;;;;26.26;50.68;99867.88;4989365;28;20806;-72
2023/09/08 09:09:36;;;;;;;11.05;6.40;;;;;;;26.58;51.06;99866.53;4986638;28;20036;-72
2023/09/08 09:12:02;;;;;;;8.10;6.20;;;;;;;25.81;49.80;99858.25;4987066;28;20140;-73
2023/09/08 09:14:33;;;;;;;19.30;5.63;;;;;;;26.05;50.65;99856.28;4987630;28;20081;-74
2023/09/08 09:16:58;;;;;;;14.25;6.20;;;;;;;26.73;49.11;99862.16;4990027;28;20034;-74
2023/09/08 09:19:31;;;;;;;9.00;5.43;;;;;;;26.28;50.29;99853.91;4991354;28;20027;-75
2023/09/08 09:21:58;;;;;;;10.02;5.15;;;;;;;25.92;50.14;99850.31;4989278;28;20041;-73
2023/09/08 09:24:46;;;;;;;7.43;5.22;;;;;;;25.51;52.99;99848.44;4994731;28;20025;-74
2023/09/08 09:27:12;;;;;;;17.60;5.68;;;;;;;25.93;51.55;99851.13;4977806;28;20052;-74
2023/09/08 09:29:49;;;;;;;9.95;5.60;;;;;;;26.34;51.46;99858.72;4994830;28;20038;-73
2023/09/08 09:32:15;;;;;;;6.18;5.10;;;;;;;26.46;51.00;99853.59;4993357;28;20101;-74
2023/09/08 09:35:00;;;;;;;6.53;5.38;;;;;;;26.56;48.18;99858.34;4987830;28;20149;-73
2023/09/08 09:37:26;;;;;;;9.73;5.68;;;;;;;26.07;45.14;99847.25;4980924;28;20054;-74
2023/09/08 09:39:54;;;;;;;8.63;6.57;;;;;;;26.26;46.21;99856.41;4993603;28;20022;-73
2023/09/08 09:42:21;;;;;;;7.25;5.10;;;;;;;26.28;44.56;99845.31;4994201;28;20053;-73
2023/09/08 09:44:51;;;;;;;7.45;5.50;;;;;;;26.53;46.44;99841.19;4977175;28;20321;-74
2023/09/08 09:47:18;;;;;;;9.95;5.88;;;;;;;26.88;47.08;99841.81;4988569;28;20102;-74
2023/09/08 09:49:45;;;;;;;13.20;5.50;;;;;;;27.26;45.95;99840.69;4989582;28;20485;-74
2023/09/08 09:52:20;;;;;;;9.60;5.63;;;;;;;27.37;44.25;99838.41;4993152;28;20096;-74
2023/09/08 09:54:46;;;;;;;9.98;5.50;;;;;;;27.48;44.62;99835.28;4980647;28;20034;-74
2023/09/08 09:57:14;;;;;;;9.60;5.88;;;;;;;27.33;44.75;99829.03;4994398;28;20030;-75
2023/09/08 09:59:41;;;;;;;6.88;5.13;;;;;;;27.27;43.54;99828.78;4992000;28;20030;-75
2023/09/08 10:02:13;;;;;;;15.73;5.82;;;;;;;27.10;44.56;99829.94;4991212;28;20042;-75
2023/09/08 10:04:40;;;;;;;10.35;5.70;;;;;;;27.12;43.52;99825.38;4973846;28;20038;-74
2023/09/08 10:07:06;;;;;;;9.05;5.22;;;;;;;27.02;44.92;99823.53;4994547;28;20529;-75
2023/09/08 10:09:31;;;;;;;17.30;5.25;;;;;;;26.98;43.95;99814.19;4986733;28;20487;-75
2023/09/08 10:12:03;;;;;;;6.35;5.13;;;;;;;26.85;43.79;99817.69;4992375;28;20091;-74
2023/09/08 10:14:30;;;;;;;8.65;5.45;;;;;;;27.06;44.88;99804.16;4991883;28;20085;-75
2023/09/08 10:16:59;;;;;;;8.43;5.57;;;;;;;27.21;42.93;99804.69;4994148;28;20486;-74
2023/09/08 10:19:25;;;;;;;10.88;5.93;;;;;;;27.19;43.90;99807.19;4976147;28;20030;-74
2023/09/08 10:21:54;;;;;;;7.18;5.57;;;;;;;27.47;42.06;99802.09;4985156;28;20065;-75
2023/09/08 10:24:34;;;;;;;11.13;5.47;;;;;;;27.93;41.88;99795.75;4993954;28;20113;-74
2023/09/08 10:27:08;;;;;;;5.43;4.88;;;;;;;28.23;41.29;99797.50;4986228;28;20473;-75
2023/09/08 10:29:34;;;;;;;9.13;5.50;;;;;;;27.70;41.95;99801.19;4991113;28;20034;-74
2023/09/08 10:32:01;;;;;;;7.32;4.55;;;;;;;27.65;42.62;99792.28;4989171;28;20030;-76
2023/09/08 10:34:28;;;;;;;10.45;5.05;;;;;;;27.92;41.59;99783.44;4983567;28;20136;-77
2023/09/08 10:36:54;;;;;;;8.68;4.85;;;;;;;27.94;40.62;99783.00;4986625;28;20034;-75
2023/09/08 10:39:38;;;;;;;8.68;4.78;;;;;;;27.92;41.22;99777.69;4987432;28;20120;-78
2023/09/08 10:42:16;;;;;;;8.73;5.47;;;;;;;28.08;41.86;99779.75;4989683;28;20115;-76
2023/09/08 10:44:42;;;;;;;7.00;4.78;;;;;;;28.34;41.51;99779.16;4970781;28;20426;-76
2023/09/08 10:47:07;;;;;;;10.93;4.28;;;;;;;28.16;40.92;99769.69;4982889;28;20041;-77
2023/09/08 10:49:38;;;;;;;9.18;5.10;;;;;;;28.21;40.58;99770.44;4986497;28;20411;-77
2023/09/08 10:52:12;;;;;;;8.82;4.82;;;;;;;28.42;40.76;99763.34;4985588;28;20030;-77
2023/09/08 10:54:44;;;;;;;8.65;5.03;;;;;;;28.56;40.94;99774.44;4984073;28;20026;-77
2023/09/08 10:57:14;;;;;;;11.48;4.28;;;;;;;28.55;40.12;99769.13;4988760;28;20117;-77
2023/09/08 11:00:01;;;;;;;9.05;4.57;;;;;;;28.58;39.97;99765.34;4969572;28;20030;-77
2023/09/08 11:02:42;;;;;;;16.15;5.28;;;;;;;28.71;37.89;99765.41;4988551;28;20046;-77
2023/09/08 11:05:16;;;;;;;6.63;4.50;;;;;;;28.38;37.06;99757.69;4988758;28;20038;-77
2023/09/08 11:07:43;;;;;;;10.52;4.15;;;;;;;28.53;37.78;99745.78;4981350;28;20026;-77
2023/09/08 11:10:10;;;;;;;10.05;4.32;;;;;;;28.44;36.74;99744.34;4983468;28;20023;-77
2023/09/08 11:12:36;;;;;;;6.70;3.95;;;;;;;28.54;39.20;99753.97;4984433;28;20101;-77
2023/09/08 11:15:05;;;;;;;5.90;3.75;;;;;;;28.79;36.54;99755.34;4984421;28;20034;-77
2023/09/08 11:17:32;;;;;;;5.70;4.22;;;;;;;29.09;36.49;99749.56;4972090;28;20049;-77
2023/09/08 11:19:58;;;;;;;7.63;3.95;;;;;;;29.11;36.09;99739.19;4989343;28;20501;-77
2023/09/08 11:22:25;;;;;;;6.35;3.45;;;;;;;29.04;36.70;99742.31;4987601;28;20084;-77
2023/09/08 11:24:52;;;;;;;8.88;3.92;;;;;;;28.27;36.22;99737.03;4988163;28;20026;-75
2023/09/08 11:27:18;;;;;;;5.40;4.57;;;;;;;28.37;36.55;99730.19;4983414;28;20038;-76